createdAt,value
2023-03-13T00:01:38.182Z,7.21
2023-03-13T00:04:04.760Z,7.24
2023-03-13T00:06:34.718Z,7.19
2023-03-13T00:09:02.325Z,7.21
2023-03-13T00:11:29.501Z,7.27
2023-03-13T00:13:57.826Z,7.33
2023-03-13T00:16:24.518Z,7.32
2023-03-13T00:18:53.456Z,7.23
2023-03-13T00:21:22.376Z,7.26
2023-03-13T00:23:49.469Z,7.24
2023-03-13T00:26:18.731Z,7.30
2023-03-13T00:28:46.120Z,7.33
2023-03-13T00:31:15.123Z,7.48
2023-03-13T00:33:43.956Z,7.48
2023-03-13T00:36:13.188Z,7.43
2023-03-13T00:38:40.179Z,7.47
2023-03-13T00:41:15.397Z,7.45
2023-03-13T00:43:43.414Z,7.53
2023-03-13T00:46:13.229Z,7.50
2023-03-13T00:48:39.800Z,7.51
2023-03-13T00:51:07.628Z,7.62
2023-03-13T00:53:34.169Z,7.61
2023-03-13T00:56:09.125Z,7.63
2023-03-13T00:58:37.553Z,7.69
2023-03-13T01:01:16.418Z,7.69
2023-03-13T01:03:44.794Z,7.71
2023-03-13T01:06:14.439Z,7.73
2023-03-13T01:08:41.204Z,7.71
2023-03-13T01:11:13.039Z,7.75
2023-03-13T01:13:39.921Z,7.64
2023-03-13T01:16:12.428Z,7.71
2023-03-13T01:18:41.135Z,7.70
2023-03-13T01:21:09.261Z,7.69
2023-03-13T01:23:35.725Z,7.77
2023-03-13T01:26:05.400Z,7.75
2023-03-13T01:28:32.518Z,7.75
2023-03-13T01:30:59.600Z,7.80
2023-03-13T01:33:26.662Z,7.75
2023-03-13T01:35:53.216Z,7.78
2023-03-13T01:38:19.806Z,7.78
2023-03-13T01:40:48.397Z,7.78
2023-03-13T01:43:27.452Z,7.92
2023-03-13T01:46:04.596Z,7.92
2023-03-13T01:48:52.615Z,7.94
2023-03-13T01:51:38.127Z,7.98
2023-03-13T01:54:07.677Z,8.02
2023-03-13T01:56:48.060Z,8.05
2023-03-13T01:59:21.269Z,8.03
2023-03-13T02:01:50.997Z,8.01
2023-03-13T02:04:20.684Z,8.03
2023-03-13T02:06:49.480Z,8.03
2023-03-13T02:09:20.865Z,8.02
2023-03-13T02:11:57.593Z,8.09
2023-03-13T02:14:27.957Z,8.08
2023-03-13T02:17:21.520Z,8.05
2023-03-13T02:19:54.273Z,8.18
2023-03-13T02:22:38.972Z,8.13
2023-03-13T02:25:33.688Z,8.21
2023-03-13T02:28:03.421Z,8.23
2023-03-13T02:30:33.450Z,8.30
2023-03-13T02:33:00.987Z,8.28
2023-03-13T02:35:28.233Z,8.29
2023-03-13T02:37:59.755Z,8.32
2023-03-13T02:40:30.165Z,8.31
2023-03-13T02:43:00.417Z,8.34
2023-03-13T02:45:27.901Z,8.40
2023-03-13T02:47:54.320Z,8.36
2023-03-13T02:50:21.186Z,8.40
2023-03-13T02:52:53.634Z,8.42
2023-03-13T02:55:28.456Z,8.45
2023-03-13T02:57:55.323Z,8.50
2023-03-13T03:00:26.532Z,8.52
2023-03-13T03:02:54.944Z,8.55
2023-03-13T03:05:22.242Z,8.61
2023-03-13T03:07:50.243Z,8.62
2023-03-13T03:10:18.235Z,8.60
2023-03-13T03:12:45.256Z,8.67
2023-03-13T03:15:12.278Z,8.65
2023-03-13T03:17:43.193Z,8.67
2023-03-13T03:20:12.108Z,8.66
2023-03-13T03:22:41.677Z,8.73
2023-03-13T03:25:09.273Z,8.72
2023-03-13T03:27:36.430Z,8.67
2023-03-13T03:30:06.344Z,8.73
2023-03-13T03:32:34.635Z,8.74
2023-03-13T03:35:01.102Z,8.69
2023-03-13T03:37:27.706Z,8.72
2023-03-13T03:39:54.430Z,8.73
2023-03-13T03:42:20.886Z,8.76
2023-03-13T03:44:47.329Z,8.80
2023-03-13T03:47:14.651Z,8.76
2023-03-13T03:49:44.772Z,8.75
2023-03-13T03:52:12.737Z,8.83
2023-03-13T03:54:41.742Z,8.83
2023-03-13T03:57:08.201Z,8.74
2023-03-13T03:59:36.260Z,8.83
2023-03-13T04:02:05.910Z,8.92
2023-03-13T04:04:33.320Z,8.85
2023-03-13T04:07:04.503Z,8.91
2023-03-13T04:09:32.581Z,8.88
2023-03-13T04:12:00.872Z,8.92
2023-03-13T04:14:27.875Z,8.92
2023-03-13T04:16:54.855Z,8.94
2023-03-13T04:19:21.377Z,9.00
2023-03-13T04:21:47.873Z,8.91
2023-03-13T04:24:17.380Z,8.92
2023-03-13T04:26:44.783Z,8.87
2023-03-13T04:29:11.473Z,8.92
2023-03-13T04:31:56.615Z,8.88
2023-03-13T04:34:33.113Z,8.86
2023-03-13T04:37:14.106Z,8.84
2023-03-13T04:40:02.151Z,8.82
2023-03-13T04:42:50.054Z,8.91
2023-03-13T04:45:38.129Z,8.88
2023-03-13T04:48:28.738Z,8.85
2023-03-13T04:51:02.653Z,8.83
2023-03-13T04:53:47.316Z,8.87
2023-03-13T04:56:43.201Z,8.79
2023-03-13T04:59:29.472Z,8.80
2023-03-13T05:02:31.269Z,8.74
2023-03-13T05:05:15.934Z,8.77
2023-03-13T05:07:58.097Z,8.73
2023-03-13T05:10:46.977Z,8.75
2023-03-13T05:13:28.949Z,8.70
2023-03-13T05:16:01.453Z,8.71
2023-03-13T05:18:37.325Z,8.67
2023-03-13T05:21:08.724Z,8.66
2023-03-13T05:23:53.912Z,8.75
2023-03-13T05:26:38.520Z,8.69
2023-03-13T05:29:18.871Z,8.70
2023-03-13T05:32:08.944Z,8.78
2023-03-13T05:34:53.899Z,8.72
2023-03-13T05:37:43.442Z,8.69
2023-03-13T05:40:30.164Z,8.75
2023-03-13T05:43:29.960Z,8.74
2023-03-13T05:46:14.772Z,8.72
2023-03-13T05:48:53.015Z,8.74
2023-03-13T05:51:35.520Z,8.74
2023-03-13T05:54:15.782Z,8.66
2023-03-13T05:57:00.727Z,8.69
2023-03-13T05:59:39.752Z,8.74
2023-03-13T06:02:23.620Z,8.66
2023-03-13T06:04:50.770Z,8.67
2023-03-13T06:07:17.656Z,8.71
2023-03-13T06:09:44.085Z,8.68
2023-03-13T06:12:11.506Z,8.69
2023-03-13T06:14:38.424Z,8.76
2023-03-13T06:17:30.671Z,8.74
2023-03-13T06:19:57.056Z,8.70
2023-03-13T06:22:23.464Z,8.74
2023-03-13T06:24:49.879Z,8.74
2023-03-13T06:27:17.016Z,8.72
2023-03-13T06:29:43.695Z,8.73
2023-03-13T06:32:10.232Z,8.69
2023-03-13T06:34:37.455Z,8.62
2023-03-13T06:37:04.033Z,8.61
2023-03-13T06:39:30.481Z,8.65
2023-03-13T06:41:56.880Z,8.67
2023-03-13T06:44:23.316Z,8.66
2023-03-13T06:46:49.725Z,8.59
2023-03-13T06:49:16.123Z,8.57
2023-03-13T06:51:42.512Z,8.64
2023-03-13T06:54:08.900Z,8.65
2023-03-13T06:56:35.321Z,8.60
2023-03-13T06:59:01.726Z,8.65
2023-03-13T07:01:28.266Z,8.60
2023-03-13T07:03:54.880Z,8.61
2023-03-13T07:06:21.293Z,8.66
2023-03-13T07:08:47.731Z,8.71
2023-03-13T07:11:14.663Z,8.73
2023-03-13T07:13:41.512Z,8.64
2023-03-13T07:16:10.470Z,8.70
2023-03-13T07:18:39.275Z,8.68
2023-03-13T07:21:05.796Z,8.72
2023-03-13T07:23:34.187Z,8.81
2023-03-13T07:26:04.206Z,8.69
2023-03-13T07:28:31.591Z,8.74
2023-03-13T07:31:05.915Z,8.78
2023-03-13T07:33:32.775Z,8.75
2023-03-13T07:35:59.199Z,8.81
2023-03-13T07:38:25.678Z,8.81
2023-03-13T07:40:54.498Z,8.93
2023-03-13T07:43:21.904Z,8.96
2023-03-13T07:45:57.161Z,9.00
2023-03-13T07:48:25.600Z,9.03
2023-03-13T07:50:52.036Z,9.00
2023-03-13T07:53:21.690Z,9.02
2023-03-13T07:56:03.466Z,9.11
2023-03-13T07:58:34.959Z,8.99
2023-03-13T08:01:01.380Z,9.02
2023-03-13T08:03:28.746Z,9.03
2023-03-13T08:06:09.653Z,9.11
2023-03-13T08:08:36.765Z,9.19
2023-03-13T08:11:09.049Z,9.19
2023-03-13T08:13:36.127Z,9.20
2023-03-13T08:16:14.872Z,9.30
2023-03-13T08:18:43.818Z,9.24
2023-03-13T08:21:15.996Z,9.38
2023-03-13T08:23:42.766Z,9.29
2023-03-13T08:26:14.612Z,9.35
2023-03-13T08:28:42.155Z,9.40
2023-03-13T08:31:17.470Z,9.44
2023-03-13T08:33:45.156Z,9.50
2023-03-13T08:36:18.813Z,9.55
2023-03-13T08:38:46.786Z,9.54
2023-03-13T08:41:18.667Z,9.59
2023-03-13T08:43:46.209Z,9.60
2023-03-13T08:46:13.517Z,9.63
2023-03-13T08:48:40.296Z,9.67
2023-03-13T08:51:12.077Z,9.78
2023-03-13T08:53:39.623Z,9.78
2023-03-13T08:56:06.843Z,9.81
2023-03-13T08:58:33.339Z,9.90
2023-03-13T09:01:04.587Z,9.90
2023-03-13T09:03:31.533Z,9.95
2023-03-13T09:05:59.033Z,9.95
2023-03-13T09:08:26.185Z,10.00
2023-03-13T09:10:57.571Z,10.12
2023-03-13T09:13:24.965Z,9.99
2023-03-13T09:15:58.922Z,10.03
2023-03-13T09:18:25.514Z,10.02
2023-03-13T09:20:52.699Z,10.09
2023-03-13T09:23:19.978Z,10.15
2023-03-13T09:25:46.563Z,10.06
2023-03-13T09:28:13.142Z,10.15
2023-03-13T09:30:39.554Z,10.16
2023-03-13T09:33:05.996Z,10.18
2023-03-13T09:35:32.497Z,10.17
2023-03-13T09:37:58.977Z,10.23
2023-03-13T09:40:27.896Z,10.28
2023-03-13T09:43:00.117Z,10.35
2023-03-13T09:45:41.889Z,10.35
2023-03-13T09:48:18.379Z,10.36
2023-03-13T09:50:56.560Z,10.45
2023-03-13T09:53:55.188Z,10.45
2023-03-13T09:56:26.486Z,10.53
2023-03-13T09:59:02.191Z,10.43
2023-03-13T10:01:31.256Z,10.45
2023-03-13T10:04:30.808Z,10.49
2023-03-13T10:06:57.461Z,10.47
2023-03-13T10:09:31.182Z,10.45
2023-03-13T10:12:12.668Z,10.54
2023-03-13T10:15:02.353Z,10.62
2023-03-13T10:17:37.341Z,10.58
2023-03-13T10:20:23.845Z,10.65
2023-03-13T10:22:55.954Z,10.77
2023-03-13T10:25:29.794Z,10.88
2023-03-13T10:27:56.416Z,10.85
2023-03-13T10:30:29.118Z,10.95
2023-03-13T10:33:08.111Z,11.01
2023-03-13T10:35:38.550Z,11.01
2023-03-13T10:38:18.694Z,11.17
2023-03-13T10:40:57.855Z,11.15
2023-03-13T10:43:25.983Z,11.26
2023-03-13T10:45:53.097Z,11.33
2023-03-13T10:48:20.487Z,11.38
2023-03-13T10:50:49.478Z,11.52
2023-03-13T10:53:31.026Z,11.61
2023-03-13T10:56:15.432Z,11.65
2023-03-13T10:58:47.420Z,11.73
2023-03-13T11:01:17.110Z,11.79
2023-03-13T11:03:44.987Z,11.89
2023-03-13T11:06:28.078Z,11.98
2023-03-13T11:09:15.111Z,12.18
2023-03-13T11:11:47.398Z,12.35
2023-03-13T11:14:25.938Z,12.44
2023-03-13T11:16:58.251Z,12.56
2023-03-13T11:19:53.878Z,12.67
2023-03-13T11:22:30.377Z,12.75
2023-03-13T11:25:08.710Z,12.69
2023-03-13T11:27:44.052Z,12.81
2023-03-13T11:30:19.788Z,12.81
2023-03-13T11:33:00.381Z,12.95
2023-03-13T11:35:57.932Z,13.00
2023-03-13T11:38:38.913Z,13.05
2023-03-13T11:41:41.876Z,13.10
2023-03-13T11:44:20.085Z,13.10
2023-03-13T11:46:59.716Z,13.16
2023-03-13T11:49:40.841Z,13.21
2023-03-13T11:52:19.474Z,13.26
2023-03-13T11:55:23.372Z,13.27
2023-03-13T11:58:37.372Z,13.40
2023-03-13T12:01:11.413Z,13.47
2023-03-13T12:03:55.810Z,13.45
2023-03-13T12:06:32.756Z,13.59
2023-03-13T12:09:12.005Z,13.72
2023-03-13T12:11:48.250Z,13.76
2023-03-13T12:14:26.090Z,13.88
2023-03-13T12:16:59.123Z,13.92
2023-03-13T12:19:35.006Z,14.02
2023-03-13T12:22:14.141Z,13.98
2023-03-13T12:24:49.990Z,14.14
2023-03-13T12:27:33.432Z,14.26
2023-03-13T12:30:14.808Z,14.32
2023-03-13T12:33:03.322Z,14.39
2023-03-13T12:35:34.855Z,14.47
2023-03-13T12:38:17.515Z,14.54
2023-03-13T12:41:17.245Z,14.69
2023-03-13T12:44:00.665Z,14.87
2023-03-13T12:46:41.053Z,15.15
2023-03-13T12:49:31.316Z,15.25
2023-03-13T12:52:12.846Z,15.31
2023-03-13T12:54:54.308Z,15.39
2023-03-13T12:57:56.038Z,15.31
2023-03-13T13:00:26.766Z,15.37
2023-03-13T13:03:37.810Z,15.48
2023-03-13T13:06:16.039Z,15.58
2023-03-13T13:08:47.041Z,15.76
2023-03-13T13:11:45.119Z,15.83
2023-03-13T13:14:11.446Z,15.84
2023-03-13T13:16:43.668Z,16.02
2023-03-13T13:19:24.939Z,16.10
2023-03-13T13:22:28.916Z,16.23
2023-03-13T13:25:01.447Z,16.30
2023-03-13T13:27:45.795Z,16.41
2023-03-13T13:30:18.473Z,16.50
2023-03-13T13:32:52.665Z,16.48
2023-03-13T13:35:26.470Z,16.54
2023-03-13T13:37:53.957Z,16.64
2023-03-13T13:40:26.645Z,16.59
2023-03-13T13:42:58.545Z,16.50
2023-03-13T13:45:28.371Z,16.58
2023-03-13T13:48:30.155Z,16.55
2023-03-13T13:51:09.694Z,16.57
2023-03-13T13:53:54.178Z,16.52
2023-03-13T13:56:38.062Z,16.60
2023-03-13T13:59:23.990Z,16.58
2023-03-13T14:02:15.981Z,16.52
2023-03-13T14:04:55.055Z,16.54
2023-03-13T14:07:37.267Z,16.63
2023-03-13T14:10:30.254Z,16.73
2023-03-13T14:12:59.483Z,16.72
2023-03-13T14:15:27.031Z,16.65
2023-03-13T14:17:56.073Z,16.65
2023-03-13T14:20:31.787Z,16.75
2023-03-13T14:23:06.894Z,16.74
2023-03-13T14:25:48.862Z,16.67
2023-03-13T14:28:24.024Z,16.79
2023-03-13T14:30:53.163Z,16.74
2023-03-13T14:33:19.987Z,16.72
2023-03-13T14:35:47.609Z,16.61
2023-03-13T14:38:22.297Z,16.72
2023-03-13T14:40:51.139Z,16.65
2023-03-13T14:43:40.936Z,16.56
2023-03-13T14:46:30.469Z,16.62
2023-03-13T14:48:57.144Z,16.62
2023-03-13T14:51:26.494Z,16.70
2023-03-13T14:53:55.433Z,16.68
2023-03-13T14:56:42.164Z,16.71
2023-03-13T14:59:23.281Z,16.62
2023-03-13T15:02:00.602Z,16.65
2023-03-13T15:04:50.305Z,16.73
2023-03-13T15:07:17.247Z,16.80
2023-03-13T15:09:45.278Z,16.90
2023-03-13T15:12:18.157Z,16.83
2023-03-13T15:14:49.487Z,16.89
2023-03-13T15:17:17.493Z,17.02
2023-03-13T15:19:49.103Z,17.02
2023-03-13T15:22:16.460Z,17.07
2023-03-13T15:24:46.774Z,16.91
2023-03-13T15:27:22.981Z,16.85
2023-03-13T15:29:49.404Z,16.98
2023-03-13T15:32:21.492Z,16.85
2023-03-13T15:34:47.879Z,16.84
2023-03-13T15:37:14.431Z,16.82
2023-03-13T15:39:41.528Z,16.64
2023-03-13T15:42:08.033Z,16.57
2023-03-13T15:44:35.073Z,16.68
2023-03-13T15:47:01.511Z,16.56
2023-03-13T15:49:27.943Z,16.47
2023-03-13T15:51:55.801Z,16.46
2023-03-13T15:54:24.507Z,16.45
2023-03-13T15:56:52.758Z,16.43
2023-03-13T15:59:19.147Z,16.47
2023-03-13T16:01:45.562Z,16.41
2023-03-13T16:04:13.363Z,16.37
2023-03-13T16:06:39.847Z,16.28
2023-03-13T16:09:06.866Z,16.34
2023-03-13T16:11:34.097Z,16.27
2023-03-13T16:14:00.501Z,16.36
2023-03-13T16:16:29.542Z,16.34
2023-03-13T16:18:57.982Z,16.42
2023-03-13T16:21:33.238Z,16.45
2023-03-13T16:24:00.739Z,16.43
2023-03-13T16:26:30.428Z,16.39
2023-03-13T16:28:57.717Z,16.24
2023-03-13T16:31:30.448Z,16.37
2023-03-13T16:33:57.987Z,16.24
2023-03-13T16:36:31.082Z,16.18
2023-03-13T16:39:02.777Z,16.14
2023-03-13T16:41:29.529Z,16.23
2023-03-13T16:43:56.546Z,16.25
2023-03-13T16:46:27.163Z,16.16
2023-03-13T16:48:53.621Z,16.11
2023-03-13T16:51:22.883Z,16.09
2023-03-13T16:53:51.171Z,16.02
2023-03-13T16:56:39.448Z,16.05
2023-03-13T16:59:10.809Z,16.06
2023-03-13T17:01:37.741Z,16.11
2023-03-13T17:04:04.518Z,16.11
2023-03-13T17:06:36.877Z,15.98
2023-03-13T17:09:04.766Z,16.08
2023-03-13T17:11:31.215Z,16.05
2023-03-13T17:13:58.461Z,15.97
2023-03-13T17:16:32.045Z,15.95
2023-03-13T17:18:59.065Z,15.96
2023-03-13T17:21:28.883Z,15.85
2023-03-13T17:23:56.014Z,15.79
2023-03-13T17:26:36.508Z,15.73
2023-03-13T17:29:04.356Z,15.70
2023-03-13T17:31:37.006Z,15.80
2023-03-13T17:34:04.757Z,15.71
2023-03-13T17:36:31.273Z,15.74
2023-03-13T17:39:00.446Z,15.63
2023-03-13T17:41:29.681Z,15.66
2023-03-13T17:43:56.458Z,15.57
2023-03-13T17:46:25.623Z,15.54
2023-03-13T17:48:53.696Z,15.61
2023-03-13T17:51:25.213Z,15.49
2023-03-13T17:53:52.708Z,15.49
2023-03-13T17:56:24.569Z,15.37
2023-03-13T17:58:54.335Z,15.44
2023-03-13T18:01:36.732Z,15.48
2023-03-13T18:04:21.731Z,15.36
2023-03-13T18:06:50.414Z,15.34
2023-03-13T18:09:19.673Z,15.42
2023-03-13T18:11:46.888Z,15.39
2023-03-13T18:14:13.441Z,15.42
2023-03-13T18:16:48.425Z,15.43
2023-03-13T18:19:22.758Z,15.33
2023-03-13T18:21:52.084Z,15.41
2023-03-13T18:24:19.155Z,15.38
2023-03-13T18:26:47.753Z,15.41
2023-03-13T18:29:15.771Z,15.44
2023-03-13T18:31:43.681Z,15.42
2023-03-13T18:34:11.506Z,15.39
2023-03-13T18:36:38.608Z,15.36
2023-03-13T18:39:06.253Z,15.45
2023-03-13T18:41:33.510Z,15.42
2023-03-13T18:44:01.593Z,15.37
2023-03-13T18:46:31.546Z,15.32
2023-03-13T18:48:58.821Z,15.23
2023-03-13T18:51:25.870Z,15.34
2023-03-13T18:53:53.668Z,15.30
2023-03-13T18:56:28.897Z,15.39
2023-03-13T18:58:55.771Z,15.35
2023-03-13T19:01:25.619Z,15.36
2023-03-13T19:03:52.278Z,15.32
2023-03-13T19:06:27.769Z,15.32
2023-03-13T19:08:57.036Z,15.41
2023-03-13T19:11:26.144Z,15.44
2023-03-13T19:13:53.238Z,15.38
2023-03-13T19:16:27.276Z,15.34
2023-03-13T19:18:53.933Z,15.30
2023-03-13T19:21:25.567Z,15.42
2023-03-13T19:23:52.757Z,15.42
2023-03-13T19:26:36.327Z,15.39
2023-03-13T19:29:04.097Z,15.32
2023-03-13T19:31:30.533Z,15.36
2023-03-13T19:33:56.969Z,15.42
2023-03-13T19:36:24.660Z,15.46
2023-03-13T19:38:51.084Z,15.48
2023-03-13T19:41:17.538Z,15.43
2023-03-13T19:43:43.986Z,15.39
2023-03-13T19:46:20.734Z,15.41
2023-03-13T19:48:47.507Z,15.34
2023-03-13T19:51:15.010Z,15.40
2023-03-13T19:53:41.481Z,15.38
2023-03-13T19:56:21.336Z,15.21
2023-03-13T19:58:49.885Z,15.22
2023-03-13T20:01:18.012Z,15.20
2023-03-13T20:03:46.291Z,15.19
2023-03-13T20:06:19.005Z,15.07
2023-03-13T20:08:46.650Z,15.09
2023-03-13T20:11:14.621Z,15.04
2023-03-13T20:13:41.538Z,15.07
2023-03-13T20:16:10.739Z,14.86
2023-03-13T20:18:43.196Z,14.91
2023-03-13T20:21:10.300Z,14.89
2023-03-13T20:23:36.751Z,14.82
2023-03-13T20:26:08.320Z,14.87
2023-03-13T20:28:35.697Z,14.85
2023-03-13T20:31:02.418Z,14.81
2023-03-13T20:33:28.894Z,14.77
2023-03-13T20:36:07.504Z,14.74
2023-03-13T20:38:34.821Z,14.74
2023-03-13T20:41:01.916Z,14.77
2023-03-13T20:43:29.018Z,14.66
2023-03-13T20:45:55.828Z,14.65
2023-03-13T20:48:22.564Z,14.62
2023-03-13T20:50:53.216Z,14.62
2023-03-13T20:53:21.113Z,14.60
2023-03-13T20:55:48.347Z,14.50
2023-03-13T20:58:15.880Z,14.53
2023-03-13T21:00:43.660Z,14.53
2023-03-13T21:03:10.105Z,14.49
2023-03-13T21:05:40.312Z,14.44
2023-03-13T21:08:07.201Z,14.36
2023-03-13T21:10:38.276Z,14.38
2023-03-13T21:13:05.118Z,14.40
2023-03-13T21:15:32.076Z,14.34
2023-03-13T21:17:58.658Z,14.37
2023-03-13T21:20:25.490Z,14.26
2023-03-13T21:22:52.436Z,14.29
2023-03-13T21:25:19.638Z,14.26
2023-03-13T21:27:46.036Z,14.30
2023-03-13T21:30:15.174Z,14.28
2023-03-13T21:32:41.773Z,14.22
2023-03-13T21:35:09.182Z,14.23
2023-03-13T21:37:36.464Z,14.14
2023-03-13T21:40:04.496Z,14.18
2023-03-13T21:42:30.895Z,14.14
2023-03-13T21:44:57.289Z,14.11
2023-03-13T21:47:26.558Z,14.13
2023-03-13T21:49:54.720Z,14.08
2023-03-13T21:52:22.268Z,13.98
2023-03-13T21:54:49.081Z,14.09
2023-03-13T21:57:15.787Z,14.08
2023-03-13T21:59:42.624Z,14.07
2023-03-13T22:02:13.373Z,14.09
2023-03-13T22:04:40.039Z,14.07
2023-03-13T22:07:06.496Z,14.10
2023-03-13T22:09:33.256Z,14.14
2023-03-13T22:11:59.628Z,14.00
2023-03-13T22:14:27.929Z,14.02
2023-03-13T22:16:54.719Z,14.04
2023-03-13T22:19:21.135Z,14.00
2023-03-13T22:21:47.547Z,14.14
2023-03-13T22:24:13.944Z,14.14
2023-03-13T22:26:40.335Z,14.12
2023-03-13T22:29:06.749Z,14.13
2023-03-13T22:31:33.169Z,14.13
2023-03-13T22:33:59.568Z,14.11
2023-03-13T22:36:25.998Z,14.17
2023-03-13T22:38:52.442Z,14.11
2023-03-13T22:41:19.410Z,14.17
2023-03-13T22:43:45.882Z,14.13
2023-03-13T22:46:12.321Z,14.20
2023-03-13T22:48:39.655Z,14.21
2023-03-13T22:51:11.559Z,14.07
2023-03-13T22:53:40.436Z,14.08
2023-03-13T22:56:09.932Z,14.13
2023-03-13T22:58:37.343Z,14.15
2023-03-13T23:01:09.616Z,14.13
2023-03-13T23:03:36.231Z,14.10
2023-03-13T23:06:07.532Z,14.09
2023-03-13T23:08:34.875Z,14.15
2023-03-13T23:11:03.306Z,14.01
2023-03-13T23:13:30.296Z,14.10
2023-03-13T23:15:56.981Z,14.12
2023-03-13T23:18:27.599Z,14.09
2023-03-13T23:20:54.768Z,14.05
2023-03-13T23:23:21.532Z,13.99
2023-03-13T23:25:47.923Z,14.00
2023-03-13T23:28:14.340Z,14.07
2023-03-13T23:30:40.831Z,14.02
2023-03-13T23:33:07.221Z,13.97
2023-03-13T23:35:36.677Z,13.99
2023-03-13T23:38:03.108Z,13.96
2023-03-13T23:40:29.525Z,13.97
2023-03-13T23:42:55.904Z,13.97
2023-03-13T23:45:22.333Z,13.90
2023-03-13T23:47:48.787Z,13.87
2023-03-13T23:50:15.877Z,13.81
2023-03-13T23:52:42.500Z,13.71
2023-03-13T23:55:09.813Z,13.72
2023-03-13T23:57:37.612Z,13.58
